createdAt,value
2018-03-24T00:01:17.513Z,88.66
2018-03-24T00:03:43.549Z,88.81
2018-03-24T00:06:09.558Z,88.76
2018-03-24T00:08:35.582Z,88.50
2018-03-24T00:11:01.689Z,88.69
2018-03-24T00:13:27.719Z,88.78
2018-03-24T00:16:00.830Z,88.63
2018-03-24T00:18:26.923Z,88.74
2018-03-24T00:20:53.776Z,88.45
2018-03-24T00:23:19.862Z,88.74
2018-03-24T00:25:45.862Z,88.61
2018-03-24T00:28:11.939Z,88.46
2018-03-24T00:30:37.926Z,88.61
2018-03-24T00:33:03.962Z,88.30
2018-03-24T00:35:30.004Z,88.46
2018-03-24T00:37:56.089Z,88.53
2018-03-24T00:40:22.134Z,88.89
2018-03-24T00:42:48.174Z,89.24
2018-03-24T00:45:14.291Z,89.22
2018-03-24T00:47:40.465Z,89.31
2018-03-24T00:50:06.479Z,89.35
2018-03-24T00:52:32.509Z,89.50
2018-03-24T00:54:58.681Z,89.46
2018-03-24T00:57:25.077Z,89.31
2018-03-24T00:59:51.138Z,89.44
2018-03-24T01:02:17.309Z,89.54
2018-03-24T01:04:43.313Z,89.46
2018-03-24T01:07:09.413Z,89.64
2018-03-24T01:09:35.533Z,89.38
2018-03-24T01:12:01.560Z,89.35
2018-03-24T01:14:27.597Z,89.10
2018-03-24T01:16:53.595Z,89.29
2018-03-24T01:19:19.627Z,89.46
2018-03-24T01:21:45.648Z,89.69
2018-03-24T01:24:11.673Z,89.67
2018-03-24T01:26:37.671Z,89.66
2018-03-24T01:29:03.717Z,89.72
2018-03-24T01:31:29.711Z,89.68
2018-03-24T01:33:56.271Z,89.80
2018-03-24T01:36:22.509Z,89.78
2018-03-24T01:38:48.734Z,89.76
2018-03-24T01:41:14.758Z,89.88
2018-03-24T01:43:40.759Z,89.88
2018-03-24T01:46:07.852Z,89.84
2018-03-24T01:48:33.949Z,90.08
2018-03-24T01:50:59.977Z,90.20
2018-03-24T01:53:38.366Z,90.34
2018-03-24T01:56:04.561Z,90.34
2018-03-24T01:58:30.633Z,90.11
2018-03-24T02:00:56.699Z,90.17
2018-03-24T02:03:22.879Z,90.23
2018-03-24T02:05:48.992Z,90.24
2018-03-24T02:08:15.031Z,90.44
2018-03-24T02:10:41.098Z,90.06
2018-03-24T02:13:07.144Z,90.17
2018-03-24T02:15:33.178Z,90.25
2018-03-24T02:17:59.399Z,90.07
2018-03-24T02:20:25.465Z,90.22
2018-03-24T02:22:51.505Z,89.97
2018-03-24T02:25:17.549Z,90.06
2018-03-24T02:27:43.580Z,90.14
2018-03-24T02:30:09.667Z,90.39
2018-03-24T02:32:35.967Z,90.35
2018-03-24T02:35:01.984Z,90.30
2018-03-24T02:37:28.026Z,90.34
2018-03-24T02:39:54.073Z,90.11
2018-03-24T02:42:20.063Z,90.12
2018-03-24T02:44:46.142Z,90.02
2018-03-24T02:47:12.788Z,89.81
2018-03-24T02:49:39.131Z,89.73
2018-03-24T02:52:05.540Z,89.45
2018-03-24T02:54:31.572Z,89.52
2018-03-24T02:56:57.634Z,89.43
2018-03-24T02:59:23.664Z,89.70
2018-03-24T03:01:49.652Z,89.67
2018-03-24T03:04:15.672Z,89.52
2018-03-24T03:06:41.694Z,89.51
2018-03-24T03:09:07.798Z,89.31
2018-03-24T03:11:33.874Z,89.23
2018-03-24T03:13:59.904Z,89.12
2018-03-24T03:16:25.941Z,89.22
2018-03-24T03:18:51.927Z,89.48
2018-03-24T03:21:18.004Z,89.30
2018-03-24T03:23:44.045Z,89.51
2018-03-24T03:26:10.083Z,89.67
2018-03-24T03:28:36.977Z,89.15
2018-03-24T03:34:03.313Z,89.30
2018-03-24T03:36:29.354Z,89.13
2018-03-24T03:38:55.430Z,88.65
2018-03-24T03:41:21.458Z,89.10
2018-03-24T03:43:47.458Z,89.13
2018-03-24T03:46:13.559Z,89.36
2018-03-24T03:48:39.596Z,89.22
2018-03-24T03:51:05.635Z,89.40
2018-03-24T03:53:31.668Z,89.37
2018-03-24T03:55:57.669Z,89.53
2018-03-24T03:58:23.696Z,89.26
2018-03-24T04:00:49.724Z,89.21
2018-03-24T04:03:15.741Z,89.28
2018-03-24T04:05:41.809Z,88.82
2018-03-24T04:08:07.893Z,89.03
2018-03-24T04:10:33.911Z,89.19
2018-03-24T04:12:59.975Z,89.02
2018-03-24T04:15:26.064Z,88.78
2018-03-24T04:17:52.173Z,88.80
2018-03-24T04:20:18.210Z,88.89
2018-03-24T04:22:44.244Z,89.14
2018-03-24T04:25:10.886Z,88.99
2018-03-24T04:27:36.995Z,89.00
2018-03-24T04:30:03.822Z,88.91
2018-03-24T04:32:29.902Z,88.74
2018-03-24T04:34:55.977Z,88.98
2018-03-24T04:37:22.018Z,88.64
2018-03-24T04:39:48.168Z,88.62
2018-03-24T04:42:14.182Z,88.68
2018-03-24T04:44:40.222Z,88.68
2018-03-24T04:47:06.253Z,88.54
2018-03-24T04:49:33.025Z,88.30
2018-03-24T04:51:59.192Z,88.25
2018-03-24T04:54:25.209Z,88.36
2018-03-24T04:56:51.238Z,88.42
2018-03-24T04:59:17.557Z,88.57
2018-03-24T05:01:43.638Z,88.20
2018-03-24T05:04:09.656Z,88.41
2018-03-24T05:06:35.660Z,88.50
2018-03-24T05:09:01.693Z,88.20
2018-03-24T05:11:28.317Z,88.52
2018-03-24T05:13:54.372Z,88.01
2018-03-24T05:16:20.421Z,88.05
2018-03-24T05:18:46.728Z,87.98
2018-03-24T05:21:13.079Z,88.23
2018-03-24T05:23:39.191Z,87.94
2018-03-24T05:26:05.240Z,87.53
2018-03-24T05:28:31.236Z,87.79
2018-03-24T05:30:57.313Z,87.60
2018-03-24T05:33:23.435Z,87.75
2018-03-24T05:35:49.473Z,87.74
2018-03-24T05:38:15.467Z,87.97
2018-03-24T05:40:41.854Z,87.79
2018-03-24T05:43:07.832Z,87.77
2018-03-24T05:45:33.848Z,87.88
2018-03-24T05:47:59.873Z,87.94
2018-03-24T05:50:25.857Z,87.92
2018-03-24T05:52:52.358Z,87.12
2018-03-24T05:55:18.369Z,87.46
2018-03-24T05:57:44.521Z,87.90
2018-03-24T06:00:10.819Z,87.75
2018-03-24T06:02:36.969Z,87.69
2018-03-24T06:05:03.130Z,87.25
2018-03-24T06:07:29.169Z,87.45
2018-03-24T06:09:55.157Z,87.61
2018-03-24T06:12:21.254Z,87.35
2018-03-24T06:14:47.302Z,87.10
2018-03-24T06:17:13.470Z,87.15
2018-03-24T06:19:40.174Z,86.31
2018-03-24T06:22:06.272Z,86.65
2018-03-24T06:24:39.632Z,86.43
2018-03-24T06:27:06.769Z,86.67
2018-03-24T06:29:32.914Z,86.66
2018-03-24T06:31:58.995Z,86.54
2018-03-24T06:34:25.196Z,86.42
2018-03-24T06:36:51.265Z,86.29
2018-03-24T06:39:17.337Z,86.33
2018-03-24T06:41:43.342Z,86.00
2018-03-24T06:44:09.375Z,85.84
2018-03-24T06:46:35.384Z,85.37
2018-03-24T06:49:01.463Z,85.27
2018-03-24T06:51:27.915Z,84.99
2018-03-24T06:53:53.925Z,84.73
2018-03-24T06:56:19.949Z,84.86
2018-03-24T06:58:46.137Z,84.42
2018-03-24T07:01:12.347Z,84.39
2018-03-24T07:03:38.399Z,83.41
2018-03-24T07:06:04.514Z,83.38
2018-03-24T07:08:31.164Z,83.20
2018-03-24T07:10:57.455Z,82.92
2018-03-24T07:13:23.820Z,82.67
2018-03-24T07:15:49.901Z,82.65
2018-03-24T07:18:15.962Z,82.60
2018-03-24T07:20:41.971Z,82.32
2018-03-24T07:23:08.281Z,81.78
2018-03-24T07:25:34.591Z,82.02
2018-03-24T07:28:00.680Z,81.59
2018-03-24T07:30:26.681Z,81.97
2018-03-24T07:32:52.872Z,81.82
2018-03-24T07:35:19.026Z,81.62
2018-03-24T07:37:45.078Z,81.42
2018-03-24T07:40:11.082Z,81.55
2018-03-24T07:42:37.278Z,81.50
2018-03-24T07:45:03.391Z,80.75
2018-03-24T07:47:29.420Z,80.71
2018-03-24T07:49:55.429Z,80.35
2018-03-24T07:52:21.473Z,80.51
2018-03-24T07:54:47.566Z,80.32
2018-03-24T07:57:13.611Z,79.43
2018-03-24T07:59:45.755Z,79.98
2018-03-24T08:02:11.810Z,79.97
2018-03-24T08:04:38.475Z,79.36
2018-03-24T08:07:04.675Z,79.42
2018-03-24T08:09:30.922Z,79.44
2018-03-24T08:11:57.005Z,78.81
2018-03-24T08:14:23.115Z,78.54
2018-03-24T08:16:49.984Z,78.88
2018-03-24T08:19:16.065Z,78.34
2018-03-24T08:21:42.097Z,77.50
2018-03-24T08:24:08.136Z,77.10
2018-03-24T08:26:34.140Z,77.74
2018-03-24T08:29:00.231Z,77.22
2018-03-24T08:31:26.312Z,76.93
2018-03-24T08:33:52.459Z,77.19
2018-03-24T08:36:18.468Z,75.80
2018-03-24T08:38:44.605Z,75.56
2018-03-24T08:41:10.702Z,74.67
2018-03-24T08:43:36.714Z,75.45
2018-03-24T08:46:03.342Z,73.42
2018-03-24T08:48:29.361Z,73.13
2018-03-24T08:50:55.430Z,71.61
2018-03-24T08:53:21.473Z,72.93
2018-03-24T08:55:47.474Z,71.00
2018-03-24T08:58:13.551Z,71.44
2018-03-24T09:00:40.002Z,71.73
2018-03-24T09:03:06.544Z,71.03
2018-03-24T09:05:32.700Z,71.88
2018-03-24T09:07:59.107Z,70.60
2018-03-24T09:10:25.128Z,70.82
2018-03-24T09:12:51.167Z,70.26
2018-03-24T09:15:17.262Z,70.41
2018-03-24T09:17:43.302Z,69.85
2018-03-24T09:20:09.719Z,69.60
2018-03-24T09:22:35.960Z,70.87
2018-03-24T09:25:02.059Z,69.23
2018-03-24T09:27:28.110Z,67.78
2018-03-24T09:29:54.183Z,68.79
2018-03-24T09:32:20.261Z,68.06
2018-03-24T09:34:46.477Z,68.94
2018-03-24T09:37:12.668Z,67.95
2018-03-24T09:39:38.698Z,69.41
2018-03-24T09:42:05.294Z,67.89
2018-03-24T09:44:31.304Z,68.32
2018-03-24T09:46:57.358Z,66.11
2018-03-24T09:49:23.792Z,66.11
2018-03-24T09:51:49.866Z,66.87
2018-03-24T09:54:16.014Z,65.32
2018-03-24T09:56:42.013Z,64.20
2018-03-24T09:59:08.642Z,61.83
2018-03-24T10:01:34.731Z,63.10
2018-03-24T10:04:01.399Z,60.57
2018-03-24T10:06:27.486Z,60.26
2018-03-24T10:08:53.524Z,59.01
2018-03-24T10:11:19.630Z,58.55
2018-03-24T10:13:45.696Z,57.16
2018-03-24T10:16:11.687Z,57.72
2018-03-24T10:18:37.731Z,58.10
2018-03-24T10:24:25.660Z,58.05
2018-03-24T10:26:51.920Z,55.46
2018-03-24T10:29:18.050Z,53.92
2018-03-24T10:31:44.037Z,54.11
2018-03-24T10:34:10.106Z,53.72
2018-03-24T10:36:36.135Z,53.85
2018-03-24T10:39:02.190Z,53.64
2018-03-24T10:41:28.278Z,51.34
2018-03-24T10:43:54.292Z,49.88
2018-03-24T10:46:20.310Z,50.36
2018-03-24T10:48:46.350Z,52.62
2018-03-24T10:51:12.382Z,49.34
2018-03-24T10:53:38.511Z,48.24
2018-03-24T10:56:04.686Z,44.93
2018-03-24T10:58:30.728Z,44.16
2018-03-24T11:01:02.855Z,44.42
2018-03-24T11:03:29.014Z,42.84
2018-03-24T11:05:55.208Z,42.21
2018-03-24T11:08:21.352Z,40.71
2018-03-24T11:10:47.391Z,41.60
2018-03-24T11:13:13.459Z,40.50
2018-03-24T11:15:39.461Z,38.15
2018-03-24T11:18:05.556Z,37.61
2018-03-24T11:20:31.611Z,42.45
2018-03-24T11:22:57.675Z,39.51
2018-03-24T11:25:23.726Z,37.44
2018-03-24T11:27:49.791Z,38.70
2018-03-24T11:30:15.903Z,37.54
2018-03-24T11:32:41.952Z,37.38
2018-03-24T11:35:08.086Z,36.28
2018-03-24T11:37:34.121Z,37.49
2018-03-24T11:40:00.188Z,41.12
2018-03-24T11:42:26.204Z,42.54
2018-03-24T11:44:52.336Z,42.89
2018-03-24T11:47:18.357Z,43.80
2018-03-24T11:49:45.241Z,43.62
2018-03-24T11:52:11.257Z,44.13
2018-03-24T11:54:44.070Z,46.21
2018-03-24T11:57:10.181Z,44.75
2018-03-24T11:59:36.748Z,45.05
2018-03-24T12:02:03.014Z,43.42
2018-03-24T12:04:29.187Z,43.93
2018-03-24T12:06:55.362Z,43.15
2018-03-24T12:09:21.418Z,42.61
2018-03-24T12:11:47.454Z,43.29
2018-03-24T12:14:13.577Z,42.57
2018-03-24T12:16:39.602Z,41.95
2018-03-24T12:19:05.624Z,43.21
2018-03-24T12:21:31.738Z,42.24
2018-03-24T12:23:57.751Z,41.66
2018-03-24T12:26:23.786Z,42.46
2018-03-24T12:28:50.003Z,42.96
2018-03-24T12:31:16.127Z,43.38
2018-03-24T12:33:42.150Z,41.09
2018-03-24T12:36:08.167Z,38.76
2018-03-24T12:38:34.260Z,36.39
2018-03-24T12:41:00.270Z,36.13
2018-03-24T12:43:26.289Z,34.25
2018-03-24T12:45:52.328Z,36.25
2018-03-24T12:48:18.419Z,31.66
2018-03-24T12:50:44.609Z,33.19
2018-03-24T12:53:10.857Z,34.02
2018-03-24T12:55:36.964Z,35.01
2018-03-24T12:58:03.011Z,37.63
2018-03-24T13:00:29.251Z,36.71
2018-03-24T13:02:55.470Z,39.10
2018-03-24T13:05:21.591Z,39.47
2018-03-24T13:07:47.734Z,39.65
2018-03-24T13:10:13.823Z,39.32
2018-03-24T13:12:39.846Z,40.53
2018-03-24T13:15:05.902Z,40.73
2018-03-24T13:17:31.926Z,40.70
2018-03-24T13:19:58.003Z,38.57
2018-03-24T13:22:24.097Z,38.54
2018-03-24T13:24:50.902Z,33.66
2018-03-24T13:27:17.380Z,30.40
2018-03-24T13:29:43.494Z,31.74
2018-03-24T13:32:10.957Z,28.62
2018-03-24T13:34:37.104Z,29.88
2018-03-24T13:37:03.357Z,25.22
2018-03-24T13:39:29.412Z,22.46
2018-03-24T13:41:55.446Z,26.22
2018-03-24T13:44:21.522Z,24.03
2018-03-24T13:46:47.580Z,19.48
2018-03-24T13:49:13.619Z,18.45
2018-03-24T13:51:39.655Z,22.96
2018-03-24T13:54:05.736Z,25.18
2018-03-24T13:56:31.783Z,22.69
2018-03-24T13:58:57.803Z,20.15
2018-03-24T14:01:23.834Z,18.79
2018-03-24T14:03:49.847Z,18.15
2018-03-24T14:06:16.141Z,16.30
2018-03-24T14:08:42.291Z,18.51
2018-03-24T14:11:08.386Z,21.75
2018-03-24T14:13:34.451Z,25.63
2018-03-24T14:16:00.631Z,28.85
2018-03-24T14:18:26.699Z,28.19
2018-03-24T14:20:52.852Z,29.20
2018-03-24T14:23:19.444Z,32.32
2018-03-24T14:25:45.866Z,32.00
2018-03-24T14:28:11.962Z,35.24
2018-03-24T14:30:38.004Z,35.83
2018-03-24T14:33:04.032Z,36.30
2018-03-24T14:35:30.081Z,37.40
2018-03-24T14:37:56.178Z,38.66
2018-03-24T14:40:22.216Z,38.35
2018-03-24T14:42:48.264Z,39.12
2018-03-24T14:45:14.270Z,40.55
2018-03-24T14:47:40.306Z,41.13
2018-03-24T14:50:06.797Z,41.22
2018-03-24T14:52:32.989Z,42.77
2018-03-24T14:54:59.191Z,42.70
2018-03-24T14:57:25.335Z,43.78
2018-03-24T14:59:51.473Z,44.27
2018-03-24T15:02:17.498Z,44.36
2018-03-24T15:04:43.583Z,44.47
2018-03-24T15:07:09.732Z,44.37
2018-03-24T15:09:35.793Z,44.97
2018-03-24T15:12:01.917Z,44.66
2018-03-24T15:14:27.905Z,44.90
2018-03-24T15:16:54.039Z,45.89
2018-03-24T15:19:20.115Z,47.67
2018-03-24T15:21:46.428Z,47.31
2018-03-24T15:24:12.527Z,46.98
2018-03-24T15:26:38.750Z,46.58
2018-03-24T15:29:16.914Z,47.16
2018-03-24T15:31:55.329Z,47.67
2018-03-24T15:34:33.681Z,48.02
2018-03-24T15:36:59.744Z,48.03
2018-03-24T15:39:25.777Z,48.39
2018-03-24T15:41:51.836Z,47.38
2018-03-24T15:44:17.886Z,46.90
2018-03-24T15:46:43.934Z,48.57
2018-03-24T15:49:09.995Z,50.73
2018-03-24T15:51:36.033Z,50.61
2018-03-24T15:54:02.417Z,50.42
2018-03-24T15:56:28.454Z,48.70
2018-03-24T15:59:01.554Z,48.09
2018-03-24T16:01:27.583Z,42.86
2018-03-24T16:03:53.610Z,38.46
2018-03-24T16:06:19.769Z,36.58
2018-03-24T16:08:45.765Z,38.57
2018-03-24T16:11:12.407Z,37.02
2018-03-24T16:13:38.498Z,40.61
2018-03-24T16:16:04.652Z,41.92
2018-03-24T16:18:30.852Z,43.47
2018-03-24T16:20:57.123Z,45.03
2018-03-24T16:23:23.143Z,45.13
2018-03-24T16:25:49.177Z,46.35
2018-03-24T16:28:16.238Z,48.26
2018-03-24T16:30:42.294Z,49.40
2018-03-24T16:33:08.732Z,50.85
2018-03-24T16:35:34.990Z,50.16
2018-03-24T16:38:01.167Z,50.87
2018-03-24T16:40:27.200Z,51.43
2018-03-24T16:42:53.642Z,52.09
2018-03-24T16:45:20.320Z,52.66
2018-03-24T16:47:46.371Z,53.58
2018-03-24T16:50:12.583Z,54.29
2018-03-24T16:52:38.601Z,55.80
2018-03-24T16:55:04.641Z,55.97
2018-03-24T16:57:30.713Z,56.37
2018-03-24T16:59:57.057Z,56.36
2018-03-24T17:02:23.224Z,56.66
2018-03-24T17:04:49.326Z,57.40
2018-03-24T17:07:15.447Z,57.88
2018-03-24T17:09:41.671Z,59.03
2018-03-24T17:12:07.970Z,59.53
2018-03-24T17:14:34.792Z,59.80
2018-03-24T17:17:01.059Z,60.67
2018-03-24T17:19:27.352Z,61.46
2018-03-24T17:21:53.514Z,61.58
2018-03-24T17:24:19.562Z,62.68
2018-03-24T17:26:45.694Z,62.89
2018-03-24T17:29:11.974Z,63.54
2018-03-24T17:31:38.822Z,64.38
2018-03-24T17:34:05.125Z,64.29
2018-03-24T17:36:31.441Z,65.04
2018-03-24T17:39:04.583Z,64.93
2018-03-24T17:41:30.664Z,66.49
2018-03-24T17:43:56.983Z,67.92
2018-03-24T17:46:23.199Z,68.26
2018-03-24T17:48:49.353Z,68.86
2018-03-24T17:51:15.477Z,69.31
2018-03-24T17:53:41.589Z,68.54
2018-03-24T17:56:14.585Z,69.12
2018-03-24T17:58:40.804Z,70.62
2018-03-24T18:01:07.030Z,69.62
2018-03-24T18:03:33.316Z,70.38
2018-03-24T18:05:59.486Z,70.33
2018-03-24T18:08:25.535Z,70.44
2018-03-24T18:10:51.753Z,71.56
2018-03-24T18:13:17.884Z,71.67
2018-03-24T18:15:44.012Z,71.29
2018-03-24T18:18:10.272Z,72.37
2018-03-24T18:20:36.409Z,72.01
2018-03-24T18:23:02.550Z,73.33
2018-03-24T18:25:28.927Z,73.44
2018-03-24T18:27:55.174Z,73.05
2018-03-24T18:30:21.358Z,73.22
2018-03-24T18:32:47.597Z,73.66
2018-03-24T18:35:13.798Z,74.73
2018-03-24T18:37:40.052Z,73.22
2018-03-24T18:40:06.284Z,74.39
2018-03-24T18:42:32.509Z,75.32
2018-03-24T18:44:58.649Z,75.68
2018-03-24T18:47:24.794Z,75.05
2018-03-24T18:49:50.969Z,75.35
2018-03-24T18:52:17.075Z,76.02
2018-03-24T18:54:43.261Z,76.24
2018-03-24T18:57:09.419Z,76.39
2018-03-24T18:59:35.589Z,76.86
2018-03-24T19:02:01.829Z,76.65
2018-03-24T19:04:28.553Z,75.47
2018-03-24T19:06:54.684Z,77.09
2018-03-24T19:09:20.846Z,77.54
2018-03-24T19:11:46.932Z,77.04
2018-03-24T19:14:13.370Z,78.06
2018-03-24T19:16:39.563Z,78.22
2018-03-24T19:19:05.640Z,77.91
2018-03-24T19:21:31.713Z,77.46
2018-03-24T19:23:57.767Z,78.94
2018-03-24T19:26:23.846Z,78.28
2018-03-24T19:28:50.068Z,78.26
2018-03-24T19:31:16.239Z,78.22
2018-03-24T19:33:42.498Z,79.31
2018-03-24T19:36:08.655Z,79.06
2018-03-24T19:38:34.883Z,80.24
2018-03-24T19:41:01.086Z,80.20
2018-03-24T19:43:27.259Z,79.92
2018-03-24T19:45:53.419Z,80.87
2018-03-24T19:48:19.557Z,79.98
2018-03-24T19:50:45.823Z,80.28
2018-03-24T19:53:11.970Z,81.22
2018-03-24T19:55:38.089Z,80.82
2018-03-24T19:58:04.220Z,80.69
2018-03-24T20:00:30.427Z,81.03
2018-03-24T20:02:56.665Z,81.22
2018-03-24T20:05:23.133Z,81.25
2018-03-24T20:07:49.378Z,81.92
2018-03-24T20:10:15.550Z,82.03
2018-03-24T20:12:41.745Z,81.65
2018-03-24T20:15:07.937Z,81.62
2018-03-24T20:17:34.149Z,82.31
2018-03-24T20:20:00.326Z,81.71
2018-03-24T20:22:26.546Z,81.73
2018-03-24T20:24:53.052Z,83.04
2018-03-24T20:27:19.323Z,82.30
2018-03-24T20:29:45.573Z,82.15
2018-03-24T20:32:11.778Z,82.71
2018-03-24T20:34:38.010Z,83.20
2018-03-24T20:37:04.239Z,83.05
2018-03-24T20:39:31.326Z,83.55
2018-03-24T20:41:57.588Z,83.40
2018-03-24T20:44:24.832Z,82.75
2018-03-24T20:46:51.302Z,83.02
2018-03-24T20:49:17.901Z,83.09
2018-03-24T20:51:44.266Z,83.94
2018-03-24T20:54:10.637Z,83.34
2018-03-24T20:56:37.174Z,83.39
2018-03-24T20:59:03.537Z,84.34
2018-03-24T21:01:29.593Z,84.04
2018-03-24T21:03:55.763Z,84.00
2018-03-24T21:06:21.906Z,84.38
2018-03-24T21:08:48.017Z,84.21
2018-03-24T21:11:14.164Z,84.44
2018-03-24T21:13:40.239Z,84.91
2018-03-24T21:16:06.473Z,84.18
2018-03-24T21:18:32.762Z,83.70
2018-03-24T21:20:58.901Z,84.75
2018-03-24T21:23:25.089Z,85.51
2018-03-24T21:25:51.314Z,85.55
2018-03-24T21:28:17.557Z,85.30
2018-03-24T21:30:43.681Z,85.53
2018-03-24T21:33:09.801Z,85.18
2018-03-24T21:35:35.958Z,84.88
2018-03-24T21:38:02.094Z,85.31
2018-03-24T21:40:28.253Z,85.56
2018-03-24T21:42:54.322Z,85.79
2018-03-24T21:45:20.422Z,85.75
2018-03-24T21:47:46.540Z,85.51
2018-03-24T21:50:12.600Z,85.49
2018-03-24T21:52:38.656Z,86.36
2018-03-24T21:55:04.758Z,86.46
2018-03-24T21:57:37.913Z,86.08
2018-03-24T22:00:03.991Z,85.63
2018-03-24T22:02:30.030Z,85.16
2018-03-24T22:04:56.148Z,85.23
2018-03-24T22:07:22.193Z,85.20
2018-03-24T22:09:48.227Z,86.39
2018-03-24T22:12:14.242Z,85.94
2018-03-24T22:14:40.275Z,86.25
2018-03-24T22:17:06.950Z,85.95
2018-03-24T22:19:33.179Z,86.10
2018-03-24T22:21:59.270Z,86.72
2018-03-24T22:24:25.326Z,86.37
2018-03-24T22:26:51.485Z,86.92
2018-03-24T22:29:17.648Z,87.10
2018-03-24T22:31:43.696Z,86.71
2018-03-24T22:34:09.774Z,86.61
2018-03-24T22:36:35.828Z,86.49
2018-03-24T22:39:01.958Z,86.26
2018-03-24T22:41:28.019Z,86.71
2018-03-24T22:43:54.056Z,86.82
2018-03-24T22:46:20.190Z,86.43
2018-03-24T22:48:46.211Z,87.07
2018-03-24T22:51:12.266Z,86.76
2018-03-24T22:53:38.321Z,87.06
2018-03-24T22:56:04.357Z,87.22
2018-03-24T22:58:30.400Z,87.19
2018-03-24T23:00:56.470Z,87.36
2018-03-24T23:03:22.514Z,87.50
2018-03-24T23:05:48.594Z,86.88
2018-03-24T23:08:14.601Z,87.43
2018-03-24T23:10:40.636Z,87.16
2018-03-24T23:13:07.123Z,87.35
2018-03-24T23:15:33.300Z,87.53
2018-03-24T23:17:59.384Z,87.44
2018-03-24T23:20:25.518Z,88.11
2018-03-24T23:22:51.570Z,88.00
2018-03-24T23:25:17.778Z,87.83
2018-03-24T23:27:43.917Z,88.10
2018-03-24T23:30:09.941Z,88.08
2018-03-24T23:32:35.955Z,89.02
2018-03-24T23:35:01.966Z,88.61
2018-03-24T23:37:28.069Z,89.54
2018-03-24T23:39:54.295Z,89.34
2018-03-24T23:42:20.380Z,89.05
2018-03-24T23:44:46.570Z,88.68
2018-03-24T23:47:12.886Z,89.22
2018-03-24T23:49:38.917Z,89.68
2018-03-24T23:52:05.077Z,88.85
2018-03-24T23:54:31.229Z,89.05
2018-03-24T23:56:57.363Z,89.04
2018-03-24T23:59:23.467Z,89.05
